createdAt,value
2019-05-26T00:00:16.123Z,10.90
2019-05-26T00:02:43.351Z,10.80
2019-05-26T00:05:10.640Z,10.80
2019-05-26T00:07:37.890Z,10.60
2019-05-26T00:10:06.406Z,10.40
2019-05-26T00:12:34.126Z,10.40
2019-05-26T00:15:01.462Z,10.30
2019-05-26T00:17:29.136Z,10.20
2019-05-26T00:19:56.469Z,10.20
2019-05-26T00:22:24.268Z,10.20
2019-05-26T00:24:51.583Z,10.30
2019-05-26T00:27:19.174Z,10.20
2019-05-26T00:29:46.710Z,10.10
2019-05-26T00:32:13.936Z,10.00
2019-05-26T00:34:41.343Z,9.90
2019-05-26T00:37:08.643Z,9.90
2019-05-26T00:39:35.863Z,9.80
2019-05-26T00:42:03.464Z,9.80
2019-05-26T00:44:30.880Z,9.80
2019-05-26T00:46:58.244Z,9.90
2019-05-26T00:49:25.616Z,10.10
2019-05-26T00:51:53.256Z,10.10
2019-05-26T00:54:21.132Z,10.10
2019-05-26T00:56:48.363Z,10.10
2019-05-26T00:59:15.703Z,10.00
2019-05-26T01:01:42.940Z,9.90
2019-05-26T01:04:10.278Z,10.00
2019-05-26T01:06:37.610Z,9.90
2019-05-26T01:09:06.756Z,9.90
2019-05-26T01:11:33.953Z,9.90
2019-05-26T01:14:01.493Z,9.90
2019-05-26T01:16:29.020Z,9.90
2019-05-26T01:18:56.324Z,9.90
2019-05-26T01:21:23.646Z,9.90
2019-05-26T01:23:51.026Z,9.90
2019-05-26T01:26:18.355Z,9.70
2019-05-26T01:28:45.602Z,9.60
2019-05-26T01:31:12.927Z,9.40
2019-05-26T01:33:40.303Z,9.30
2019-05-26T01:36:08.056Z,9.10
2019-05-26T01:38:35.807Z,9.10
2019-05-26T01:41:03.085Z,9.10
2019-05-26T01:43:30.544Z,9.00
2019-05-26T01:45:59.440Z,8.90
2019-05-26T01:48:26.753Z,8.90
2019-05-26T01:50:54.159Z,8.90
2019-05-26T01:53:21.569Z,8.80
2019-05-26T01:55:48.956Z,8.80
2019-05-26T01:58:16.186Z,8.80
2019-05-26T02:00:43.461Z,8.70
2019-05-26T02:03:10.721Z,8.60
2019-05-26T02:05:38.690Z,8.60
2019-05-26T02:08:06.016Z,8.60
2019-05-26T02:10:33.389Z,8.60
2019-05-26T02:13:01.062Z,8.60
2019-05-26T02:15:29.003Z,8.60
2019-05-26T02:17:56.587Z,8.60
2019-05-26T02:20:23.959Z,8.50
2019-05-26T02:22:51.214Z,8.50
2019-05-26T02:25:19.101Z,8.40
2019-05-26T02:27:46.345Z,8.40
2019-05-26T02:30:13.701Z,8.40
2019-05-26T02:32:40.985Z,8.30
2019-05-26T02:35:08.675Z,8.40
2019-05-26T02:37:36.122Z,8.30
2019-05-26T02:40:05.657Z,8.40
2019-05-26T02:42:33.292Z,8.40
2019-05-26T02:45:00.613Z,8.50
2019-05-26T02:47:27.943Z,8.60
2019-05-26T02:49:57.068Z,8.70
2019-05-26T02:52:24.406Z,8.50
2019-05-26T02:54:52.848Z,8.40
2019-05-26T02:57:20.180Z,8.20
2019-05-26T02:59:47.629Z,8.20
2019-05-26T03:02:16.619Z,8.10
2019-05-26T03:04:43.977Z,8.10
2019-05-26T03:07:12.461Z,8.00
2019-05-26T03:09:41.993Z,8.00
2019-05-26T03:12:09.618Z,7.90
2019-05-26T03:14:41.086Z,8.00
2019-05-26T03:17:08.754Z,8.00
2019-05-26T03:19:36.688Z,8.10
2019-05-26T03:22:04.195Z,8.10
2019-05-26T03:24:32.232Z,8.10
2019-05-26T03:26:59.469Z,8.10
2019-05-26T03:29:26.704Z,8.20
2019-05-26T03:31:54.109Z,8.30
2019-05-26T03:34:21.482Z,8.40
2019-05-26T03:36:49.202Z,8.40
2019-05-26T03:39:16.435Z,8.40
2019-05-26T03:41:43.797Z,8.40
2019-05-26T03:44:11.112Z,8.40
2019-05-26T03:46:38.507Z,8.40
2019-05-26T03:49:05.821Z,8.40
2019-05-26T03:51:33.148Z,8.30
2019-05-26T03:54:00.757Z,8.10
2019-05-26T03:56:28.072Z,8.00
2019-05-26T03:58:56.106Z,8.00
2019-05-26T04:01:23.670Z,8.10
2019-05-26T04:03:51.134Z,8.00
2019-05-26T04:06:18.682Z,7.90
2019-05-26T04:08:45.965Z,7.90
2019-05-26T04:11:13.333Z,7.90
2019-05-26T04:13:43.721Z,7.90
2019-05-26T04:16:11.314Z,8.00
2019-05-26T04:18:38.670Z,8.00
2019-05-26T04:21:05.909Z,8.10
2019-05-26T04:23:33.225Z,8.20
2019-05-26T04:26:00.552Z,8.30
2019-05-26T04:28:27.908Z,8.30
2019-05-26T04:30:55.183Z,8.30
2019-05-26T04:33:22.816Z,8.40
2019-05-26T04:35:50.104Z,8.40
2019-05-26T04:38:17.441Z,8.50
2019-05-26T04:40:45.134Z,8.50
2019-05-26T04:43:14.912Z,8.60
2019-05-26T04:45:41.574Z,8.70
2019-05-26T04:48:08.978Z,8.90
2019-05-26T04:50:36.307Z,9.00
2019-05-26T04:53:06.829Z,9.10
2019-05-26T04:55:33.371Z,9.10
2019-05-26T04:58:00.773Z,9.10
2019-05-26T05:00:28.046Z,9.20
2019-05-26T05:02:55.442Z,9.40
2019-05-26T05:05:22.694Z,9.50
2019-05-26T05:07:49.973Z,9.50
2019-05-26T05:10:17.111Z,9.80
2019-05-26T05:12:44.380Z,9.90
2019-05-26T05:15:12.150Z,10.00
2019-05-26T05:17:39.370Z,10.20
2019-05-26T05:20:06.988Z,10.30
2019-05-26T05:22:34.224Z,10.50
2019-05-26T05:25:01.636Z,10.50
2019-05-26T05:27:28.876Z,10.80
2019-05-26T05:29:56.177Z,11.00
2019-05-26T05:32:23.405Z,11.20
2019-05-26T05:34:51.015Z,11.40
2019-05-26T05:37:18.493Z,11.80
2019-05-26T05:39:45.768Z,11.80
2019-05-26T05:42:13.301Z,12.00
2019-05-26T05:44:40.617Z,12.20
2019-05-26T05:47:07.941Z,12.30
2019-05-26T05:49:35.224Z,12.40
2019-05-26T05:52:02.572Z,12.60
2019-05-26T05:54:30.256Z,13.10
2019-05-26T05:56:57.831Z,13.50
2019-05-26T05:59:25.142Z,13.50
2019-05-26T06:01:52.462Z,13.30
2019-05-26T06:04:19.757Z,13.10
2019-05-26T06:06:47.044Z,13.10
2019-05-26T06:09:14.684Z,13.40
2019-05-26T06:11:41.939Z,13.40
2019-05-26T06:14:09.271Z,13.60
2019-05-26T06:16:36.611Z,13.80
2019-05-26T06:19:03.946Z,13.60
2019-05-26T06:21:31.197Z,13.40
2019-05-26T06:23:58.529Z,13.40
2019-05-26T06:26:25.799Z,13.50
2019-05-26T06:28:53.115Z,13.50
2019-05-26T06:31:20.477Z,13.50
2019-05-26T06:33:47.708Z,13.70
2019-05-26T06:36:14.929Z,13.90
2019-05-26T06:38:42.157Z,13.90
2019-05-26T06:41:09.848Z,14.00
2019-05-26T06:43:37.562Z,14.00
2019-05-26T06:46:05.324Z,14.00
2019-05-26T06:48:32.569Z,14.10
2019-05-26T06:50:59.873Z,14.20
2019-05-26T06:53:27.144Z,14.40
2019-05-26T06:55:54.523Z,14.60
2019-05-26T06:58:21.861Z,15.20
2019-05-26T07:00:49.533Z,15.30
2019-05-26T07:03:16.801Z,15.20
2019-05-26T07:05:44.099Z,15.20
2019-05-26T07:08:11.820Z,15.30
2019-05-26T07:10:39.490Z,15.60
2019-05-26T07:13:06.809Z,15.90
2019-05-26T07:15:34.504Z,15.90
2019-05-26T07:18:01.732Z,15.90
2019-05-26T07:20:29.389Z,16.00
2019-05-26T07:22:56.712Z,16.00
2019-05-26T07:25:24.410Z,16.10
2019-05-26T07:27:52.309Z,16.30
2019-05-26T07:30:23.411Z,16.70
2019-05-26T07:32:49.085Z,16.60
2019-05-26T07:35:16.821Z,16.70
2019-05-26T07:37:44.171Z,16.90
2019-05-26T07:40:11.624Z,17.20
2019-05-26T07:42:38.933Z,17.00
2019-05-26T07:45:06.858Z,17.30
2019-05-26T07:47:34.190Z,17.20
2019-05-26T07:50:01.437Z,17.10
2019-05-26T07:52:28.771Z,17.10
2019-05-26T07:54:56.083Z,17.10
2019-05-26T07:57:28.520Z,17.10
2019-05-26T07:59:56.177Z,17.60
2019-05-26T08:02:23.933Z,17.80
2019-05-26T08:04:51.518Z,17.50
2019-05-26T08:07:22.709Z,17.50
2019-05-26T08:09:47.963Z,17.70
2019-05-26T08:12:25.820Z,17.80
2019-05-26T08:14:44.352Z,18.00
2019-05-26T08:17:11.735Z,18.10
2019-05-26T08:19:39.068Z,18.00
2019-05-26T08:22:06.407Z,18.40
2019-05-26T08:24:33.747Z,18.60
2019-05-26T08:27:01.585Z,18.60
2019-05-26T08:29:29.085Z,18.70
2019-05-26T08:31:56.460Z,18.80
2019-05-26T08:34:23.733Z,19.10
2019-05-26T08:36:54.173Z,19.30
2019-05-26T08:39:21.443Z,19.60
2019-05-26T08:41:48.805Z,20.00
2019-05-26T08:44:16.120Z,20.70
2019-05-26T08:46:43.649Z,20.70
2019-05-26T08:49:11.355Z,20.50
2019-05-26T08:51:38.602Z,20.40
2019-05-26T08:54:07.787Z,20.30
2019-05-26T08:56:35.461Z,20.30
2019-05-26T08:59:03.012Z,20.40
2019-05-26T09:01:30.696Z,20.20
2019-05-26T09:03:57.999Z,20.10
2019-05-26T09:06:25.593Z,20.20
2019-05-26T09:08:54.757Z,20.00
2019-05-26T09:11:22.721Z,19.90
2019-05-26T09:13:51.952Z,20.00
2019-05-26T09:16:19.483Z,20.20
2019-05-26T09:18:46.877Z,20.30
2019-05-26T09:21:14.423Z,20.40
2019-05-26T09:23:42.143Z,20.30
2019-05-26T09:26:09.597Z,20.00
2019-05-26T09:28:36.896Z,20.10
2019-05-26T09:31:04.281Z,20.20
2019-05-26T09:33:31.682Z,20.20
2019-05-26T09:36:28.793Z,20.20
2019-05-26T09:39:15.722Z,20.30
2019-05-26T09:42:22.196Z,20.70
2019-05-26T09:45:14.682Z,20.60
2019-05-26T09:48:47.641Z,20.90
2019-05-26T09:52:01.473Z,20.70
2019-05-26T09:54:51.383Z,20.90
2019-05-26T09:57:18.973Z,20.90
2019-05-26T09:59:46.641Z,21.00
2019-05-26T10:02:14.349Z,21.00
2019-05-26T10:04:42.048Z,21.30
2019-05-26T10:07:13.303Z,21.40
2019-05-26T10:09:38.935Z,21.30
2019-05-26T10:12:06.304Z,21.60
2019-05-26T10:14:34.005Z,21.40
2019-05-26T10:17:01.264Z,21.30
2019-05-26T10:19:28.699Z,21.50
2019-05-26T10:21:56.343Z,21.50
2019-05-26T10:24:24.436Z,21.70
2019-05-26T10:26:51.845Z,21.90
2019-05-26T10:29:19.344Z,22.00
2019-05-26T10:31:47.913Z,21.90
2019-05-26T10:34:15.253Z,21.90
2019-05-26T10:36:42.852Z,22.00
2019-05-26T10:39:10.743Z,22.20
2019-05-26T10:41:37.981Z,22.50
2019-05-26T10:44:05.396Z,22.80
2019-05-26T10:46:32.728Z,23.50
2019-05-26T10:49:00.020Z,23.80
2019-05-26T10:51:27.742Z,24.10
2019-05-26T10:53:54.992Z,24.70
2019-05-26T10:56:22.285Z,25.00
2019-05-26T10:58:49.545Z,25.40
2019-05-26T11:01:16.913Z,26.10
2019-05-26T11:03:44.499Z,26.70
2019-05-26T11:06:11.870Z,26.40
2019-05-26T11:08:39.111Z,26.20
2019-05-26T11:11:06.401Z,26.60
2019-05-26T11:13:34.119Z,26.80
2019-05-26T11:16:01.792Z,26.60
2019-05-26T11:18:29.029Z,26.70
2019-05-26T11:20:56.484Z,27.00
2019-05-26T11:23:23.741Z,26.30
2019-05-26T11:25:51.468Z,26.00
2019-05-26T11:28:19.069Z,26.80
2019-05-26T11:30:46.717Z,27.40
2019-05-26T11:33:13.865Z,27.60
2019-05-26T11:35:41.161Z,27.40
2019-05-26T11:38:08.437Z,27.00
2019-05-26T11:40:35.767Z,27.10
2019-05-26T11:43:15.748Z,27.50
2019-05-26T11:45:32.492Z,26.90
2019-05-26T11:48:00.087Z,26.60
2019-05-26T11:50:27.482Z,27.10
2019-05-26T11:52:55.055Z,26.90
2019-05-26T11:55:22.348Z,26.30
2019-05-26T11:57:49.513Z,26.40
2019-05-26T12:00:19.084Z,26.90
2019-05-26T12:02:46.526Z,27.40
2019-05-26T12:05:17.499Z,27.70
2019-05-26T12:07:43.369Z,28.00
2019-05-26T12:10:13.960Z,28.20
2019-05-26T12:12:40.757Z,27.80
2019-05-26T12:15:09.049Z,27.70
2019-05-26T12:17:36.371Z,27.80
2019-05-26T12:20:05.600Z,27.50
2019-05-26T12:22:33.198Z,27.70
2019-05-26T12:25:02.361Z,27.60
2019-05-26T12:27:29.640Z,27.40
2019-05-26T12:29:56.912Z,27.40
2019-05-26T12:32:24.246Z,27.30
2019-05-26T12:34:51.596Z,27.50
2019-05-26T12:37:18.904Z,27.90
2019-05-26T12:39:46.602Z,27.60
2019-05-26T12:42:16.927Z,27.60
2019-05-26T12:44:49.489Z,27.80
2019-05-26T12:47:12.285Z,27.70
2019-05-26T12:49:39.542Z,27.40
2019-05-26T12:52:07.151Z,27.00
2019-05-26T12:54:34.809Z,26.50
2019-05-26T12:57:02.475Z,25.80
2019-05-26T12:59:30.108Z,25.50
2019-05-26T13:01:57.476Z,25.40
2019-05-26T13:04:25.047Z,25.30
2019-05-26T13:06:52.392Z,25.00
2019-05-26T13:09:19.759Z,25.00
2019-05-26T13:11:47.006Z,24.80
2019-05-26T13:14:14.360Z,24.30
2019-05-26T13:16:41.996Z,23.70
2019-05-26T13:19:09.557Z,23.30
2019-05-26T13:21:36.792Z,23.40
2019-05-26T13:24:04.680Z,23.50
2019-05-26T13:26:31.922Z,23.60
2019-05-26T13:28:59.223Z,23.50
2019-05-26T13:31:26.617Z,23.50
2019-05-26T13:33:53.941Z,23.50
2019-05-26T13:36:21.446Z,23.50
2019-05-26T13:38:48.744Z,23.50
2019-05-26T13:41:17.815Z,23.50
2019-05-26T13:43:45.212Z,23.40
2019-05-26T13:46:12.484Z,23.40
2019-05-26T13:48:39.871Z,23.40
2019-05-26T13:51:07.417Z,23.40
2019-05-26T13:53:34.701Z,23.30
2019-05-26T13:56:03.640Z,23.20
2019-05-26T13:58:31.043Z,23.20
2019-05-26T14:00:58.572Z,23.10
2019-05-26T14:03:25.845Z,23.00
2019-05-26T14:05:53.722Z,23.10
2019-05-26T14:08:20.962Z,23.10
2019-05-26T14:10:48.277Z,22.90
2019-05-26T14:13:15.525Z,22.70
2019-05-26T14:15:42.897Z,22.70
2019-05-26T14:18:10.126Z,22.60
2019-05-26T14:20:39.467Z,22.60
2019-05-26T14:23:07.719Z,22.40
2019-05-26T14:25:35.409Z,22.50
2019-05-26T14:28:02.809Z,22.60
2019-05-26T14:30:30.533Z,22.50
2019-05-26T14:32:58.076Z,22.60
2019-05-26T14:35:25.489Z,22.50
2019-05-26T14:37:52.664Z,22.30
2019-05-26T14:40:20.238Z,21.90
2019-05-26T14:42:47.577Z,21.90
2019-05-26T14:45:15.352Z,21.90
2019-05-26T14:47:42.579Z,22.10
2019-05-26T14:50:10.687Z,22.10
2019-05-26T14:52:38.336Z,22.10
2019-05-26T14:55:06.282Z,22.20
2019-05-26T14:57:33.524Z,22.20
2019-05-26T15:00:01.125Z,22.20
2019-05-26T15:02:28.360Z,22.10
2019-05-26T15:04:55.639Z,22.10
2019-05-26T15:07:22.885Z,22.10
2019-05-26T15:09:50.628Z,22.10
2019-05-26T15:12:17.872Z,22.00
2019-05-26T15:14:45.273Z,21.90
2019-05-26T15:17:12.548Z,21.80
2019-05-26T15:19:41.060Z,21.60
2019-05-26T15:22:08.414Z,21.60
2019-05-26T15:24:35.892Z,21.50
2019-05-26T15:27:03.245Z,21.50
2019-05-26T15:29:30.902Z,21.60
2019-05-26T15:32:02.684Z,21.70
2019-05-26T15:34:29.022Z,21.80
2019-05-26T15:36:56.661Z,21.80
2019-05-26T15:39:23.856Z,21.80
2019-05-26T15:41:51.769Z,21.80
2019-05-26T15:44:19.036Z,21.70
2019-05-26T15:46:46.313Z,21.60
2019-05-26T15:49:13.548Z,21.60
2019-05-26T15:51:40.847Z,21.50
2019-05-26T15:54:08.289Z,21.50
2019-05-26T15:56:35.731Z,21.40
2019-05-26T15:59:02.971Z,21.40
2019-05-26T16:01:30.670Z,21.50
2019-05-26T16:03:57.966Z,21.50
2019-05-26T16:06:25.272Z,21.60
2019-05-26T16:08:52.653Z,21.60
2019-05-26T16:11:20.229Z,21.70
2019-05-26T16:13:47.933Z,21.80
2019-05-26T16:16:15.281Z,21.80
2019-05-26T16:18:42.961Z,21.90
2019-05-26T16:21:26.599Z,21.70
2019-05-26T16:23:39.674Z,21.60
2019-05-26T16:26:07.321Z,21.50
2019-05-26T16:28:34.620Z,21.30
2019-05-26T16:31:02.351Z,21.30
2019-05-26T16:33:29.688Z,21.30
2019-05-26T16:35:56.962Z,21.20
2019-05-26T16:38:24.496Z,21.20
2019-05-26T16:40:51.798Z,21.10
2019-05-26T16:43:19.164Z,21.10
2019-05-26T16:45:55.609Z,21.00
2019-05-26T16:48:15.404Z,21.00
2019-05-26T16:50:43.011Z,21.00
2019-05-26T16:53:10.577Z,20.90
2019-05-26T16:55:38.234Z,20.80
2019-05-26T16:58:07.087Z,20.80
2019-05-26T17:00:34.662Z,20.70
2019-05-26T17:03:02.007Z,20.80
2019-05-26T17:05:29.309Z,20.70
2019-05-26T17:07:56.853Z,20.60
2019-05-26T17:10:24.136Z,20.60
2019-05-26T17:12:52.496Z,20.70
2019-05-26T17:15:20.137Z,20.60
2019-05-26T17:17:47.370Z,20.60
2019-05-26T17:20:14.796Z,20.50
2019-05-26T17:22:42.413Z,20.60
2019-05-26T17:25:10.368Z,20.60
2019-05-26T17:27:37.672Z,20.50
2019-05-26T17:30:06.196Z,20.40
2019-05-26T17:32:33.796Z,20.40
2019-05-26T17:35:01.057Z,20.40
2019-05-26T17:37:28.346Z,20.30
2019-05-26T17:39:55.568Z,20.20
2019-05-26T17:42:22.843Z,20.00
2019-05-26T17:44:50.369Z,19.90
2019-05-26T17:47:29.760Z,19.70
2019-05-26T17:49:46.681Z,19.60
2019-05-26T17:52:14.349Z,19.50
2019-05-26T17:54:41.575Z,19.40
2019-05-26T17:57:08.976Z,19.20
2019-05-26T17:59:36.302Z,19.00
2019-05-26T18:02:03.645Z,19.10
2019-05-26T18:04:30.884Z,19.10
2019-05-26T18:06:58.197Z,19.00
2019-05-26T18:09:25.535Z,18.80
2019-05-26T18:11:52.869Z,18.70
2019-05-26T18:14:20.169Z,18.50
2019-05-26T18:16:47.470Z,18.30
2019-05-26T18:19:15.136Z,18.20
2019-05-26T18:21:42.474Z,18.10
2019-05-26T18:24:09.806Z,18.00
2019-05-26T18:26:37.504Z,18.00
2019-05-26T18:29:04.776Z,18.10
2019-05-26T18:31:32.260Z,18.00
2019-05-26T18:33:59.882Z,17.80
2019-05-26T18:36:27.182Z,17.70
2019-05-26T18:38:54.433Z,17.60
2019-05-26T18:41:22.148Z,17.50
2019-05-26T18:43:49.379Z,17.40
2019-05-26T18:46:16.701Z,17.30
2019-05-26T18:48:43.834Z,17.20
2019-05-26T18:51:11.181Z,17.10
2019-05-26T18:53:38.518Z,17.10
2019-05-26T18:56:06.170Z,17.00
2019-05-26T18:58:33.416Z,16.90
2019-05-26T19:01:00.662Z,17.10
2019-05-26T19:03:27.992Z,16.90
2019-05-26T19:05:55.228Z,16.70
2019-05-26T19:08:22.853Z,16.50
2019-05-26T19:10:50.240Z,16.40
2019-05-26T19:13:17.558Z,16.20
2019-05-26T19:15:45.102Z,16.10
2019-05-26T19:18:19.913Z,15.90
2019-05-26T19:20:41.796Z,15.80
2019-05-26T19:23:09.116Z,15.70
2019-05-26T19:25:36.461Z,15.50
2019-05-26T19:28:04.032Z,15.40
2019-05-26T19:30:31.339Z,15.30
2019-05-26T19:32:58.652Z,15.20
2019-05-26T19:35:25.912Z,15.30
2019-05-26T19:37:53.291Z,15.20
2019-05-26T19:40:20.920Z,15.30
2019-05-26T19:42:48.219Z,15.20
2019-05-26T19:45:15.589Z,15.00
2019-05-26T19:47:43.197Z,15.00
2019-05-26T19:50:11.052Z,14.90
2019-05-26T19:52:38.380Z,14.90
2019-05-26T19:55:08.793Z,14.80
2019-05-26T19:57:36.172Z,14.70
2019-05-26T20:00:06.925Z,14.70
2019-05-26T20:02:34.565Z,14.70
2019-05-26T20:05:02.448Z,14.70
2019-05-26T20:07:29.764Z,14.80
2019-05-26T20:09:57.452Z,14.70
2019-05-26T20:12:24.733Z,14.60
2019-05-26T20:14:53.075Z,14.40
2019-05-26T20:17:20.784Z,14.20
2019-05-26T20:19:48.851Z,14.10
2019-05-26T20:22:16.641Z,14.00
2019-05-26T20:24:44.316Z,14.00
2019-05-26T20:27:11.609Z,14.00
2019-05-26T20:29:38.902Z,14.00
2019-05-26T20:32:06.335Z,14.00
2019-05-26T20:34:35.776Z,13.90
2019-05-26T20:37:03.367Z,13.70
2019-05-26T20:39:31.337Z,13.60
2019-05-26T20:41:59.315Z,13.50
2019-05-26T20:44:26.552Z,13.40
2019-05-26T20:46:54.024Z,13.30
2019-05-26T20:49:21.307Z,13.30
2019-05-26T20:51:48.544Z,13.30
2019-05-26T20:54:15.815Z,13.30
2019-05-26T20:56:43.173Z,13.30
2019-05-26T20:59:10.553Z,13.30
2019-05-26T21:01:37.852Z,13.40
2019-05-26T21:04:05.114Z,13.30
2019-05-26T21:06:32.248Z,13.20
2019-05-26T21:08:59.888Z,13.10
2019-05-26T21:11:27.444Z,13.00
2019-05-26T21:13:54.999Z,12.80
2019-05-26T21:16:22.282Z,12.70
2019-05-26T21:18:49.647Z,12.70
2019-05-26T21:21:17.190Z,12.60
2019-05-26T21:23:44.488Z,12.70
2019-05-26T21:26:12.187Z,12.60
2019-05-26T21:28:39.479Z,12.60
2019-05-26T21:31:07.104Z,12.60
2019-05-26T21:33:34.388Z,12.50
2019-05-26T21:36:01.642Z,12.50
2019-05-26T21:38:28.888Z,12.40
2019-05-26T21:40:56.205Z,12.40
2019-05-26T21:43:23.497Z,12.40
2019-05-26T21:45:51.231Z,12.50
2019-05-26T21:48:18.510Z,12.50
2019-05-26T21:50:46.258Z,12.40
2019-05-26T21:53:14.024Z,12.40
2019-05-26T21:55:41.361Z,12.40
2019-05-26T21:58:08.610Z,12.30
2019-05-26T22:00:40.727Z,12.30
2019-05-26T22:03:08.122Z,12.40
2019-05-26T22:05:35.539Z,12.40
2019-05-26T22:08:03.353Z,12.50
2019-05-26T22:10:30.596Z,12.40
2019-05-26T22:12:57.872Z,12.40
2019-05-26T22:15:25.517Z,12.20
2019-05-26T22:17:52.896Z,12.00
2019-05-26T22:20:20.145Z,11.90
2019-05-26T22:22:47.394Z,11.70
2019-05-26T22:25:14.796Z,11.60
2019-05-26T22:27:42.805Z,11.60
2019-05-26T22:30:10.701Z,11.50
2019-05-26T22:32:37.986Z,11.40
2019-05-26T22:35:06.132Z,11.40
2019-05-26T22:37:33.409Z,11.40
2019-05-26T22:40:00.691Z,11.40
2019-05-26T22:42:28.091Z,11.40
2019-05-26T22:44:55.464Z,11.30
2019-05-26T22:47:22.972Z,11.40
2019-05-26T22:49:50.625Z,11.50
2019-05-26T22:52:18.080Z,11.50
2019-05-26T22:54:45.664Z,11.40
2019-05-26T22:57:12.958Z,11.40
2019-05-26T22:59:40.296Z,11.30
2019-05-26T23:02:07.719Z,11.30
2019-05-26T23:04:35.097Z,11.40
2019-05-26T23:07:02.735Z,11.40
2019-05-26T23:09:30.378Z,11.40
2019-05-26T23:11:57.937Z,11.50
2019-05-26T23:14:25.250Z,11.30
2019-05-26T23:16:52.617Z,11.40
2019-05-26T23:19:20.310Z,11.40
2019-05-26T23:21:47.688Z,11.40
2019-05-26T23:24:14.920Z,11.20
2019-05-26T23:26:42.492Z,11.00
2019-05-26T23:29:09.861Z,10.80
2019-05-26T23:31:37.191Z,11.00
2019-05-26T23:34:04.532Z,11.00
2019-05-26T23:36:31.885Z,11.20
2019-05-26T23:39:02.344Z,11.30
2019-05-26T23:41:31.320Z,11.10
2019-05-26T23:43:58.571Z,11.00
2019-05-26T23:46:25.829Z,10.90
2019-05-26T23:48:53.240Z,10.90
2019-05-26T23:51:20.486Z,10.90
2019-05-26T23:53:47.800Z,10.90
2019-05-26T23:56:15.258Z,10.90
2019-05-26T23:58:42.716Z,11.00
